Portada
METAR-TAF:

METAR-TAF

Aeroports :

Timimoun, Algèria

latitud: 29-15N, longitud: 000-17E, altitud: 312 m

Observació

L'informe es va fer fa 49 minuts, a les 09:00 UTC
Vent 22 kt del Nord-Est
Temperatura 16°C
Humitat 34%
Pressió 1023 hPa
Visibilitat 10 km o més
sense núvols per sota de 1500 mi sense presència de cumulonimbus.

METAR: DAUT 210900Z 05022KT CAVOK 16/00 Q1023

Hora: 10:49 (09:49 UTC)

Pronòstic

L'informe es va fer fa 1 hora i 49 minuts, a les 08:00 UTC
Pronòstic vàlid del 21 a les 09 UTC al 21 a les 18 UTC
Vent 18 kt del Nord-Est
Visibilitat: 8000 m
Probabilitat 30%
l' 21 a les 10 UTC al 21 a les 15 UTC
Visibilitat: 5000 m
torb baixa de sorra

TAF: DAUT 210800Z 2109/2118 04018KT 8000 NSC PROB30 2110/2115 5000 DRSA

Observacions i pronòstics meteorològics de més de 4000 aeroports (METAR i TAF).

Les estacions disponibles són els punts grocs i vermells al mapa.

Posi el ratolí al punt desitjat per veure el nom de l'estació.

Feu clic per veure les observacions i els pronòstics meteorològics.

Per canviar el mapa: feu clic els botons verds amb una creu de color negre per apropar; al botó verd amb un guió per allunyar la imatge; o en les fletxes verdes per a mapes adjacents.


METAR-TAF: